sensor_id;sensor_type;location;lat;lon;timestamp;P1;durP1;ratioP1;P2;durP2;ratioP2
65613;SDS011;52283;49.292;10.572;2023-07-29T00:00:52;4.20;;;3.80;;
65613;SDS011;52283;49.292;10.572;2023-07-29T00:03:19;3.83;;;3.28;;
65613;SDS011;52283;49.292;10.572;2023-07-29T00:05:47;3.22;;;2.92;;
65613;SDS011;52283;49.292;10.572;2023-07-29T00:08:13;3.58;;;3.17;;
65613;SDS011;52283;49.292;10.572;2023-07-29T00:10:40;3.40;;;3.10;;
65613;SDS011;52283;49.292;10.572;2023-07-29T00:13:08;4.90;;;4.05;;
65613;SDS011;52283;49.292;10.572;2023-07-29T00:15:34;3.35;;;3.05;;
65613;SDS011;52283;49.292;10.572;2023-07-29T00:18:01;5.97;;;3.67;;
65613;SDS011;52283;49.292;10.572;2023-07-29T00:20:27;4.32;;;3.97;;
65613;SDS011;52283;49.292;10.572;2023-07-29T00:22:54;5.43;;;3.72;;
65613;SDS011;52283;49.292;10.572;2023-07-29T00:25:20;5.80;;;4.18;;
65613;SDS011;52283;49.292;10.572;2023-07-29T00:27:47;5.97;;;4.75;;
65613;SDS011;52283;49.292;10.572;2023-07-29T00:30:15;7.78;;;3.65;;
65613;SDS011;52283;49.292;10.572;2023-07-29T00:32:41;6.07;;;4.47;;
65613;SDS011;52283;49.292;10.572;2023-07-29T00:35:08;6.65;;;4.13;;
65613;SDS011;52283;49.292;10.572;2023-07-29T00:37:35;10.95;;;4.68;;
65613;SDS011;52283;49.292;10.572;2023-07-29T00:40:02;6.15;;;4.72;;
65613;SDS011;52283;49.292;10.572;2023-07-29T00:42:29;7.32;;;5.03;;
65613;SDS011;52283;49.292;10.572;2023-07-29T00:44:56;8.38;;;5.57;;
65613;SDS011;52283;49.292;10.572;2023-07-29T00:47:24;8.25;;;6.38;;
65613;SDS011;52283;49.292;10.572;2023-07-29T00:49:51;9.45;;;5.75;;
65613;SDS011;52283;49.292;10.572;2023-07-29T00:52:18;11.40;;;6.07;;
65613;SDS011;52283;49.292;10.572;2023-07-29T00:54:44;7.47;;;6.38;;
65613;SDS011;52283;49.292;10.572;2023-07-29T00:57:11;7.63;;;5.53;;
65613;SDS011;52283;49.292;10.572;2023-07-29T00:59:39;11.38;;;6.63;;
65613;SDS011;52283;49.292;10.572;2023-07-29T01:02:07;9.85;;;6.15;;
65613;SDS011;52283;49.292;10.572;2023-07-29T01:04:35;11.25;;;7.03;;
65613;SDS011;52283;49.292;10.572;2023-07-29T01:07:03;10.40;;;7.35;;
65613;SDS011;52283;49.292;10.572;2023-07-29T01:09:41;9.02;;;7.13;;
65613;SDS011;52283;49.292;10.572;2023-07-29T01:12:16;10.13;;;7.18;;
65613;SDS011;52283;49.292;10.572;2023-07-29T01:14:49;9.25;;;7.03;;
65613;SDS011;52283;49.292;10.572;2023-07-29T01:17:22;15.80;;;7.65;;
65613;SDS011;52283;49.292;10.572;2023-07-29T01:19:59;11.38;;;7.25;;
65613;SDS011;52283;49.292;10.572;2023-07-29T01:22:28;9.50;;;7.65;;
65613;SDS011;52283;49.292;10.572;2023-07-29T01:24:57;12.57;;;7.88;;
65613;SDS011;52283;49.292;10.572;2023-07-29T01:27:24;11.02;;;7.68;;
65613;SDS011;52283;49.292;10.572;2023-07-29T01:29:50;10.30;;;7.00;;
65613;SDS011;52283;49.292;10.572;2023-07-29T01:32:17;13.00;;;7.32;;
65613;SDS011;52283;49.292;10.572;2023-07-29T01:34:53;9.68;;;7.60;;
65613;SDS011;52283;49.292;10.572;2023-07-29T01:37:26;11.35;;;8.05;;
65613;SDS011;52283;49.292;10.572;2023-07-29T01:39:58;9.45;;;6.22;;
65613;SDS011;52283;49.292;10.572;2023-07-29T01:42:26;7.30;;;6.10;;
65613;SDS011;52283;49.292;10.572;2023-07-29T01:44:52;10.38;;;6.90;;
65613;SDS011;52283;49.292;10.572;2023-07-29T01:47:20;10.52;;;6.13;;
65613;SDS011;52283;49.292;10.572;2023-07-29T01:49:47;8.48;;;6.53;;
65613;SDS011;52283;49.292;10.572;2023-07-29T01:52:13;8.32;;;6.45;;
65613;SDS011;52283;49.292;10.572;2023-07-29T01:54:40;6.75;;;5.45;;
65613;SDS011;52283;49.292;10.572;2023-07-29T01:57:08;8.70;;;6.90;;
65613;SDS011;52283;49.292;10.572;2023-07-29T01:59:34;8.30;;;5.22;;
65613;SDS011;52283;49.292;10.572;2023-07-29T02:02:01;7.57;;;5.43;;
65613;SDS011;52283;49.292;10.572;2023-07-29T02:04:27;6.60;;;5.45;;
65613;SDS011;52283;49.292;10.572;2023-07-29T02:06:54;12.95;;;6.13;;
65613;SDS011;52283;49.292;10.572;2023-07-29T02:09:20;6.20;;;5.28;;
65613;SDS011;52283;49.292;10.572;2023-07-29T02:11:47;9.45;;;6.18;;
65613;SDS011;52283;49.292;10.572;2023-07-29T02:14:15;10.20;;;5.35;;
65613;SDS011;52283;49.292;10.572;2023-07-29T02:16:41;8.23;;;5.55;;
65613;SDS011;52283;49.292;10.572;2023-07-29T02:19:08;6.05;;;4.40;;
65613;SDS011;52283;49.292;10.572;2023-07-29T02:21:34;5.43;;;4.53;;
65613;SDS011;52283;49.292;10.572;2023-07-29T02:24:00;5.13;;;4.40;;
65613;SDS011;52283;49.292;10.572;2023-07-29T02:26:27;7.45;;;4.05;;
65613;SDS011;52283;49.292;10.572;2023-07-29T02:28:53;6.10;;;3.50;;
65613;SDS011;52283;49.292;10.572;2023-07-29T02:31:22;5.95;;;3.53;;
65613;SDS011;52283;49.292;10.572;2023-07-29T02:33:50;4.00;;;3.33;;
65613;SDS011;52283;49.292;10.572;2023-07-29T02:36:16;3.75;;;3.20;;
65613;SDS011;52283;49.292;10.572;2023-07-29T02:38:43;5.80;;;3.35;;
65613;SDS011;52283;49.292;10.572;2023-07-29T02:41:10;9.13;;;3.22;;
65613;SDS011;52283;49.292;10.572;2023-07-29T02:43:38;3.15;;;2.70;;
65613;SDS011;52283;49.292;10.572;2023-07-29T02:46:06;7.38;;;2.80;;
65613;SDS011;52283;49.292;10.572;2023-07-29T02:48:34;3.22;;;2.92;;
65613;SDS011;52283;49.292;10.572;2023-07-29T02:51:00;3.30;;;2.55;;
65613;SDS011;52283;49.292;10.572;2023-07-29T02:53:26;4.55;;;3.28;;
65613;SDS011;52283;49.292;10.572;2023-07-29T02:55:53;3.60;;;2.65;;
65613;SDS011;52283;49.292;10.572;2023-07-29T02:58:19;3.65;;;3.30;;
65613;SDS011;52283;49.292;10.572;2023-07-29T03:00:46;4.20;;;3.55;;
65613;SDS011;52283;49.292;10.572;2023-07-29T03:03:13;5.03;;;2.70;;
65613;SDS011;52283;49.292;10.572;2023-07-29T03:05:41;6.82;;;3.63;;
65613;SDS011;52283;49.292;10.572;2023-07-29T03:08:08;4.10;;;3.10;;
65613;SDS011;52283;49.292;10.572;2023-07-29T03:10:34;3.38;;;3.08;;
65613;SDS011;52283;49.292;10.572;2023-07-29T03:13:02;3.65;;;2.80;;
65613;SDS011;52283;49.292;10.572;2023-07-29T03:15:28;3.22;;;2.85;;
65613;SDS011;52283;49.292;10.572;2023-07-29T03:17:55;7.35;;;2.90;;
65613;SDS011;52283;49.292;10.572;2023-07-29T03:20:21;6.05;;;2.83;;
65613;SDS011;52283;49.292;10.572;2023-07-29T03:22:49;5.20;;;3.08;;
65613;SDS011;52283;49.292;10.572;2023-07-29T03:25:15;4.00;;;2.40;;
65613;SDS011;52283;49.292;10.572;2023-07-29T03:27:42;3.92;;;2.95;;
65613;SDS011;52283;49.292;10.572;2023-07-29T03:30:09;3.63;;;2.40;;
65613;SDS011;52283;49.292;10.572;2023-07-29T03:32:38;2.67;;;2.45;;
65613;SDS011;52283;49.292;10.572;2023-07-29T03:35:10;4.93;;;2.47;;
65613;SDS011;52283;49.292;10.572;2023-07-29T03:37:36;3.28;;;2.88;;
65613;SDS011;52283;49.292;10.572;2023-07-29T03:40:05;4.07;;;2.55;;
65613;SDS011;52283;49.292;10.572;2023-07-29T03:42:32;2.80;;;2.13;;
65613;SDS011;52283;49.292;10.572;2023-07-29T03:44:59;4.55;;;2.20;;
65613;SDS011;52283;49.292;10.572;2023-07-29T03:47:25;4.68;;;2.25;;
65613;SDS011;52283;49.292;10.572;2023-07-29T03:49:51;1.90;;;1.60;;
65613;SDS011;52283;49.292;10.572;2023-07-29T03:52:18;2.38;;;1.95;;
65613;SDS011;52283;49.292;10.572;2023-07-29T03:54:45;1.58;;;1.48;;
65613;SDS011;52283;49.292;10.572;2023-07-29T03:57:12;2.00;;;1.80;;
65613;SDS011;52283;49.292;10.572;2023-07-29T03:59:39;1.95;;;1.83;;
65613;SDS011;52283;49.292;10.572;2023-07-29T04:02:05;3.50;;;1.48;;
65613;SDS011;52283;49.292;10.572;2023-07-29T04:04:32;2.05;;;1.20;;
65613;SDS011;52283;49.292;10.572;2023-07-29T04:06:58;2.00;;;1.40;;
65613;SDS011;52283;49.292;10.572;2023-07-29T04:09:25;1.83;;;1.45;;
65613;SDS011;52283;49.292;10.572;2023-07-29T04:11:51;3.38;;;1.45;;
65613;SDS011;52283;49.292;10.572;2023-07-29T04:14:19;4.20;;;1.40;;
65613;SDS011;52283;49.292;10.572;2023-07-29T04:16:45;2.88;;;2.13;;
65613;SDS011;52283;49.292;10.572;2023-07-29T04:19:14;3.33;;;2.50;;
65613;SDS011;52283;49.292;10.572;2023-07-29T04:21:40;3.92;;;1.65;;
65613;SDS011;52283;49.292;10.572;2023-07-29T04:24:07;2.22;;;2.03;;
65613;SDS011;52283;49.292;10.572;2023-07-29T04:26:33;3.05;;;2.40;;
65613;SDS011;52283;49.292;10.572;2023-07-29T04:29:00;6.38;;;2.42;;
65613;SDS011;52283;49.292;10.572;2023-07-29T04:31:27;3.70;;;2.80;;
65613;SDS011;52283;49.292;10.572;2023-07-29T04:33:54;4.18;;;2.20;;
65613;SDS011;52283;49.292;10.572;2023-07-29T04:36:20;3.63;;;2.50;;
65613;SDS011;52283;49.292;10.572;2023-07-29T04:38:47;4.85;;;2.17;;
65613;SDS011;52283;49.292;10.572;2023-07-29T04:41:13;3.92;;;2.33;;
65613;SDS011;52283;49.292;10.572;2023-07-29T04:43:40;3.30;;;1.98;;
65613;SDS011;52283;49.292;10.572;2023-07-29T04:46:06;3.00;;;2.13;;
65613;SDS011;52283;49.292;10.572;2023-07-29T04:48:35;3.38;;;2.45;;
65613;SDS011;52283;49.292;10.572;2023-07-29T04:51:01;2.00;;;1.77;;
65613;SDS011;52283;49.292;10.572;2023-07-29T04:53:28;3.15;;;2.08;;
65613;SDS011;52283;49.292;10.572;2023-07-29T04:55:54;2.40;;;2.20;;
65613;SDS011;52283;49.292;10.572;2023-07-29T04:58:20;5.90;;;2.63;;
65613;SDS011;52283;49.292;10.572;2023-07-29T05:00:47;13.07;;;2.80;;
65613;SDS011;52283;49.292;10.572;2023-07-29T05:03:13;3.15;;;2.08;;
65613;SDS011;52283;49.292;10.572;2023-07-29T05:05:41;3.47;;;2.00;;
65613;SDS011;52283;49.292;10.572;2023-07-29T05:08:08;4.45;;;1.95;;
65613;SDS011;52283;49.292;10.572;2023-07-29T05:10:34;2.92;;;2.10;;
65613;SDS011;52283;49.292;10.572;2023-07-29T05:13:01;4.43;;;2.47;;
65613;SDS011;52283;49.292;10.572;2023-07-29T05:15:27;4.45;;;1.80;;
65613;SDS011;52283;49.292;10.572;2023-07-29T05:17:54;4.05;;;2.30;;
65613;SDS011;52283;49.292;10.572;2023-07-29T05:20:20;3.33;;;1.60;;
65613;SDS011;52283;49.292;10.572;2023-07-29T05:22:48;1.95;;;1.60;;
65613;SDS011;52283;49.292;10.572;2023-07-29T05:25:14;3.17;;;1.70;;
65613;SDS011;52283;49.292;10.572;2023-07-29T05:27:41;1.88;;;1.75;;
65613;SDS011;52283;49.292;10.572;2023-07-29T05:30:07;4.47;;;1.70;;
65613;SDS011;52283;49.292;10.572;2023-07-29T05:32:34;3.05;;;2.00;;
65613;SDS011;52283;49.292;10.572;2023-07-29T05:35:01;3.40;;;1.70;;
65613;SDS011;52283;49.292;10.572;2023-07-29T05:37:28;1.77;;;1.55;;
65613;SDS011;52283;49.292;10.572;2023-07-29T05:39:55;3.20;;;1.92;;
65613;SDS011;52283;49.292;10.572;2023-07-29T05:42:22;4.88;;;1.50;;
65613;SDS011;52283;49.292;10.572;2023-07-29T05:44:48;1.55;;;1.30;;
65613;SDS011;52283;49.292;10.572;2023-07-29T05:47:15;1.65;;;1.33;;
65613;SDS011;52283;49.292;10.572;2023-07-29T05:49:41;3.60;;;1.23;;
65613;SDS011;52283;49.292;10.572;2023-07-29T05:52:08;2.83;;;1.33;;
65613;SDS011;52283;49.292;10.572;2023-07-29T05:54:34;2.58;;;1.30;;
65613;SDS011;52283;49.292;10.572;2023-07-29T05:57:02;1.42;;;1.33;;
65613;SDS011;52283;49.292;10.572;2023-07-29T05:59:28;1.58;;;1.10;;
65613;SDS011;52283;49.292;10.572;2023-07-29T06:01:55;1.48;;;1.10;;
65613;SDS011;52283;49.292;10.572;2023-07-29T06:04:22;3.78;;;1.20;;
65613;SDS011;52283;49.292;10.572;2023-07-29T06:06:48;2.13;;;1.10;;
65613;SDS011;52283;49.292;10.572;2023-07-29T06:09:15;2.22;;;1.38;;
65613;SDS011;52283;49.292;10.572;2023-07-29T06:11:41;3.25;;;1.42;;
65613;SDS011;52283;49.292;10.572;2023-07-29T06:14:09;4.60;;;1.48;;
65613;SDS011;52283;49.292;10.572;2023-07-29T06:16:36;5.72;;;1.45;;
65613;SDS011;52283;49.292;10.572;2023-07-29T06:19:02;2.40;;;1.75;;
65613;SDS011;52283;49.292;10.572;2023-07-29T06:21:29;3.42;;;1.30;;
65613;SDS011;52283;49.292;10.572;2023-07-29T06:23:56;2.03;;;0.98;;
65613;SDS011;52283;49.292;10.572;2023-07-29T06:26:22;3.90;;;1.20;;
65613;SDS011;52283;49.292;10.572;2023-07-29T06:28:49;2.30;;;1.20;;
65613;SDS011;52283;49.292;10.572;2023-07-29T06:31:17;3.40;;;1.02;;
65613;SDS011;52283;49.292;10.572;2023-07-29T06:33:43;1.30;;;1.20;;
65613;SDS011;52283;49.292;10.572;2023-07-29T06:36:10;1.85;;;1.08;;
65613;SDS011;52283;49.292;10.572;2023-07-29T06:38:36;2.30;;;1.48;;
65613;SDS011;52283;49.292;10.572;2023-07-29T06:41:03;4.90;;;2.10;;
65613;SDS011;52283;49.292;10.572;2023-07-29T06:43:30;4.25;;;1.88;;
65613;SDS011;52283;49.292;10.572;2023-07-29T06:45:57;2.13;;;1.60;;
65613;SDS011;52283;49.292;10.572;2023-07-29T06:48:24;5.10;;;1.83;;
65613;SDS011;52283;49.292;10.572;2023-07-29T06:50:51;5.60;;;1.63;;
65613;SDS011;52283;49.292;10.572;2023-07-29T06:53:20;2.75;;;1.30;;
65613;SDS011;52283;49.292;10.572;2023-07-29T06:55:46;6.68;;;1.90;;
65613;SDS011;52283;49.292;10.572;2023-07-29T06:58:13;3.72;;;1.67;;
65613;SDS011;52283;49.292;10.572;2023-07-29T07:00:39;9.05;;;1.40;;
65613;SDS011;52283;49.292;10.572;2023-07-29T07:03:06;6.80;;;2.05;;
65613;SDS011;52283;49.292;10.572;2023-07-29T07:05:36;2.92;;;1.77;;
65613;SDS011;52283;49.292;10.572;2023-07-29T07:08:03;3.55;;;1.80;;
65613;SDS011;52283;49.292;10.572;2023-07-29T07:10:29;3.85;;;1.15;;
65613;SDS011;52283;49.292;10.572;2023-07-29T07:12:56;2.58;;;1.27;;
65613;SDS011;52283;49.292;10.572;2023-07-29T07:15:23;2.15;;;1.08;;
65613;SDS011;52283;49.292;10.572;2023-07-29T07:17:50;3.22;;;1.30;;
65613;SDS011;52283;49.292;10.572;2023-07-29T07:20:17;2.55;;;1.02;;
65613;SDS011;52283;49.292;10.572;2023-07-29T07:22:45;4.00;;;1.58;;
65613;SDS011;52283;49.292;10.572;2023-07-29T07:25:11;2.28;;;1.45;;
65613;SDS011;52283;49.292;10.572;2023-07-29T07:27:37;2.25;;;1.75;;
65613;SDS011;52283;49.292;10.572;2023-07-29T07:30:04;2.88;;;1.55;;
65613;SDS011;52283;49.292;10.572;2023-07-29T07:32:32;1.40;;;1.30;;
65613;SDS011;52283;49.292;10.572;2023-07-29T07:34:58;2.83;;;1.50;;
65613;SDS011;52283;49.292;10.572;2023-07-29T07:37:25;4.25;;;1.90;;
65613;SDS011;52283;49.292;10.572;2023-07-29T07:39:52;5.05;;;1.80;;
65613;SDS011;52283;49.292;10.572;2023-07-29T07:42:19;3.60;;;1.60;;
65613;SDS011;52283;49.292;10.572;2023-07-29T07:44:45;5.03;;;1.42;;
65613;SDS011;52283;49.292;10.572;2023-07-29T07:47:12;2.63;;;1.58;;
65613;SDS011;52283;49.292;10.572;2023-07-29T07:49:38;4.45;;;1.25;;
65613;SDS011;52283;49.292;10.572;2023-07-29T07:52:05;2.67;;;1.50;;
65613;SDS011;52283;49.292;10.572;2023-07-29T07:54:32;1.88;;;1.77;;
65613;SDS011;52283;49.292;10.572;2023-07-29T07:56:59;3.50;;;2.10;;
65613;SDS011;52283;49.292;10.572;2023-07-29T07:59:26;3.80;;;1.92;;
65613;SDS011;52283;49.292;10.572;2023-07-29T08:01:52;4.15;;;2.47;;
65613;SDS011;52283;49.292;10.572;2023-07-29T08:04:19;4.72;;;2.58;;
65613;SDS011;52283;49.292;10.572;2023-07-29T08:06:45;8.50;;;3.58;;
65613;SDS011;52283;49.292;10.572;2023-07-29T08:09:12;6.10;;;3.42;;
65613;SDS011;52283;49.292;10.572;2023-07-29T08:11:38;8.30;;;2.90;;
65613;SDS011;52283;49.292;10.572;2023-07-29T08:14:06;4.70;;;2.55;;
65613;SDS011;52283;49.292;10.572;2023-07-29T08:16:32;2.80;;;1.80;;
65613;SDS011;52283;49.292;10.572;2023-07-29T08:18:59;2.40;;;1.50;;
65613;SDS011;52283;49.292;10.572;2023-07-29T08:21:26;4.03;;;1.88;;
65613;SDS011;52283;49.292;10.572;2023-07-29T08:23:52;2.50;;;1.80;;
65613;SDS011;52283;49.292;10.572;2023-07-29T08:26:19;1.42;;;1.33;;
65613;SDS011;52283;49.292;10.572;2023-07-29T08:28:46;3.00;;;1.58;;
65613;SDS011;52283;49.292;10.572;2023-07-29T08:31:14;9.10;;;2.10;;
65613;SDS011;52283;49.292;10.572;2023-07-29T08:33:41;2.78;;;1.75;;
65613;SDS011;52283;49.292;10.572;2023-07-29T08:36:07;3.97;;;1.70;;
65613;SDS011;52283;49.292;10.572;2023-07-29T08:38:33;1.75;;;1.50;;
65613;SDS011;52283;49.292;10.572;2023-07-29T08:41:04;3.05;;;2.15;;
65613;SDS011;52283;49.292;10.572;2023-07-29T08:43:36;3.85;;;1.98;;
65613;SDS011;52283;49.292;10.572;2023-07-29T08:46:08;4.68;;;1.48;;
65613;SDS011;52283;49.292;10.572;2023-07-29T08:48:39;2.25;;;2.08;;
65613;SDS011;52283;49.292;10.572;2023-07-29T08:51:07;2.40;;;1.52;;
65613;SDS011;52283;49.292;10.572;2023-07-29T08:53:34;3.20;;;2.03;;
65613;SDS011;52283;49.292;10.572;2023-07-29T08:56:01;2.67;;;1.77;;
65613;SDS011;52283;49.292;10.572;2023-07-29T08:58:28;3.80;;;1.95;;
65613;SDS011;52283;49.292;10.572;2023-07-29T09:00:55;2.30;;;2.10;;
65613;SDS011;52283;49.292;10.572;2023-07-29T09:03:22;4.10;;;1.90;;
65613;SDS011;52283;49.292;10.572;2023-07-29T09:05:49;2.40;;;2.00;;
65613;SDS011;52283;49.292;10.572;2023-07-29T09:08:16;3.05;;;2.28;;
65613;SDS011;52283;49.292;10.572;2023-07-29T09:10:44;3.08;;;2.05;;
65613;SDS011;52283;49.292;10.572;2023-07-29T09:13:10;3.40;;;2.35;;
65613;SDS011;52283;49.292;10.572;2023-07-29T09:15:37;3.22;;;2.13;;
65613;SDS011;52283;49.292;10.572;2023-07-29T09:18:10;3.65;;;1.95;;
65613;SDS011;52283;49.292;10.572;2023-07-29T09:20:37;4.00;;;1.60;;
65613;SDS011;52283;49.292;10.572;2023-07-29T09:23:09;3.35;;;1.40;;
65613;SDS011;52283;49.292;10.572;2023-07-29T09:25:36;2.28;;;1.58;;
65613;SDS011;52283;49.292;10.572;2023-07-29T09:28:07;2.53;;;1.42;;
65613;SDS011;52283;49.292;10.572;2023-07-29T09:33:01;1.25;;;1.10;;
65613;SDS011;52283;49.292;10.572;2023-07-29T09:35:27;1.10;;;1.00;;
65613;SDS011;52283;49.292;10.572;2023-07-29T09:37:58;3.88;;;1.63;;
65613;SDS011;52283;49.292;10.572;2023-07-29T09:40:26;1.88;;;1.10;;
65613;SDS011;52283;49.292;10.572;2023-07-29T09:42:53;1.95;;;1.30;;
65613;SDS011;52283;49.292;10.572;2023-07-29T09:45:21;1.25;;;0.90;;
65613;SDS011;52283;49.292;10.572;2023-07-29T09:47:48;1.80;;;1.15;;
65613;SDS011;52283;49.292;10.572;2023-07-29T09:50:15;1.17;;;1.08;;
65613;SDS011;52283;49.292;10.572;2023-07-29T09:52:42;2.28;;;1.27;;
65613;SDS011;52283;49.292;10.572;2023-07-29T09:55:09;1.35;;;1.25;;
65613;SDS011;52283;49.292;10.572;2023-07-29T09:57:37;2.08;;;1.83;;
65613;SDS011;52283;49.292;10.572;2023-07-29T10:00:05;1.50;;;1.40;;
65613;SDS011;52283;49.292;10.572;2023-07-29T10:02:36;1.40;;;1.30;;
65613;SDS011;52283;49.292;10.572;2023-07-29T10:05:04;2.00;;;1.10;;
65613;SDS011;52283;49.292;10.572;2023-07-29T10:07:32;1.58;;;1.42;;
65613;SDS011;52283;49.292;10.572;2023-07-29T10:10:00;1.45;;;1.35;;
65613;SDS011;52283;49.292;10.572;2023-07-29T10:12:28;5.78;;;1.38;;
65613;SDS011;52283;49.292;10.572;2023-07-29T10:14:57;1.40;;;1.30;;
65613;SDS011;52283;49.292;10.572;2023-07-29T10:17:25;3.70;;;1.73;;
65613;SDS011;52283;49.292;10.572;2023-07-29T10:19:53;1.58;;;1.10;;
65613;SDS011;52283;49.292;10.572;2023-07-29T10:22:22;2.22;;;1.38;;
65613;SDS011;52283;49.292;10.572;2023-07-29T10:24:51;6.10;;;1.15;;
65613;SDS011;52283;49.292;10.572;2023-07-29T10:27:20;1.77;;;1.23;;
65613;SDS011;52283;49.292;10.572;2023-07-29T10:29:50;1.00;;;1.00;;
65613;SDS011;52283;49.292;10.572;2023-07-29T10:32:19;3.50;;;1.58;;
65613;SDS011;52283;49.292;10.572;2023-07-29T10:34:49;5.80;;;1.83;;
65613;SDS011;52283;49.292;10.572;2023-07-29T10:37:17;2.00;;;1.20;;
65613;SDS011;52283;49.292;10.572;2023-07-29T10:39:51;1.77;;;1.13;;
65613;SDS011;52283;49.292;10.572;2023-07-29T10:42:19;2.72;;;1.23;;
65613;SDS011;52283;49.292;10.572;2023-07-29T10:44:45;1.75;;;1.00;;
65613;SDS011;52283;49.292;10.572;2023-07-29T10:47:15;1.77;;;1.23;;
65613;SDS011;52283;49.292;10.572;2023-07-29T10:49:44;1.67;;;1.42;;
65613;SDS011;52283;49.292;10.572;2023-07-29T10:52:12;1.42;;;1.33;;
65613;SDS011;52283;49.292;10.572;2023-07-29T10:54:43;4.07;;;1.17;;
65613;SDS011;52283;49.292;10.572;2023-07-29T10:57:14;0.90;;;0.90;;
65613;SDS011;52283;49.292;10.572;2023-07-29T10:59:41;1.27;;;0.73;;
65613;SDS011;52283;49.292;10.572;2023-07-29T11:02:19;1.23;;;1.00;;
65613;SDS011;52283;49.292;10.572;2023-07-29T11:04:47;1.52;;;0.90;;
65613;SDS011;52283;49.292;10.572;2023-07-29T11:07:22;1.30;;;1.20;;
65613;SDS011;52283;49.292;10.572;2023-07-29T11:09:52;2.80;;;0.70;;
65613;SDS011;52283;49.292;10.572;2023-07-29T11:15:20;3.92;;;1.05;;
65613;SDS011;52283;49.292;10.572;2023-07-29T11:17:48;2.40;;;1.33;;
65613;SDS011;52283;49.292;10.572;2023-07-29T11:20:18;1.25;;;1.05;;
65613;SDS011;52283;49.292;10.572;2023-07-29T11:22:45;1.50;;;1.23;;
65613;SDS011;52283;49.292;10.572;2023-07-29T11:25:12;1.40;;;1.30;;
65613;SDS011;52283;49.292;10.572;2023-07-29T11:27:40;2.78;;;1.60;;
65613;SDS011;52283;49.292;10.572;2023-07-29T11:30:08;2.97;;;1.30;;
65613;SDS011;52283;49.292;10.572;2023-07-29T11:32:35;2.10;;;1.23;;
65613;SDS011;52283;49.292;10.572;2023-07-29T11:35:03;1.75;;;1.45;;
65613;SDS011;52283;49.292;10.572;2023-07-29T11:37:33;2.42;;;1.73;;
65613;SDS011;52283;49.292;10.572;2023-07-29T11:40:00;1.20;;;1.10;;
65613;SDS011;52283;49.292;10.572;2023-07-29T11:42:27;1.17;;;1.08;;
65613;SDS011;52283;49.292;10.572;2023-07-29T11:44:56;1.73;;;1.25;;
65613;SDS011;52283;49.292;10.572;2023-07-29T11:47:22;1.80;;;1.08;;
65613;SDS011;52283;49.292;10.572;2023-07-29T11:49:49;3.13;;;1.10;;
65613;SDS011;52283;49.292;10.572;2023-07-29T11:52:15;2.95;;;1.08;;
65613;SDS011;52283;49.292;10.572;2023-07-29T11:54:46;1.73;;;1.45;;
65613;SDS011;52283;49.292;10.572;2023-07-29T11:57:14;1.10;;;0.87;;
65613;SDS011;52283;49.292;10.572;2023-07-29T11:59:41;1.45;;;1.13;;
65613;SDS011;52283;49.292;10.572;2023-07-29T12:02:10;1.20;;;0.90;;
65613;SDS011;52283;49.292;10.572;2023-07-29T12:04:38;1.15;;;0.90;;
65613;SDS011;52283;49.292;10.572;2023-07-29T12:07:06;1.15;;;0.80;;
65613;SDS011;52283;49.292;10.572;2023-07-29T12:09:33;1.67;;;0.70;;
65613;SDS011;52283;49.292;10.572;2023-07-29T12:12:01;1.73;;;0.70;;
65613;SDS011;52283;49.292;10.572;2023-07-29T12:14:29;1.15;;;1.02;;
65613;SDS011;52283;49.292;10.572;2023-07-29T12:16:55;1.17;;;0.80;;
65613;SDS011;52283;49.292;10.572;2023-07-29T12:19:22;1.92;;;0.73;;
65613;SDS011;52283;49.292;10.572;2023-07-29T12:21:50;0.88;;;0.55;;
65613;SDS011;52283;49.292;10.572;2023-07-29T12:24:16;0.90;;;0.77;;
65613;SDS011;52283;49.292;10.572;2023-07-29T12:26:43;0.93;;;0.80;;
65613;SDS011;52283;49.292;10.572;2023-07-29T12:29:12;1.02;;;0.70;;
65613;SDS011;52283;49.292;10.572;2023-07-29T12:31:39;1.85;;;0.80;;
65613;SDS011;52283;49.292;10.572;2023-07-29T12:34:05;1.70;;;0.90;;
65613;SDS011;52283;49.292;10.572;2023-07-29T12:36:42;1.35;;;0.77;;
65613;SDS011;52283;49.292;10.572;2023-07-29T12:39:15;3.22;;;0.85;;
65613;SDS011;52283;49.292;10.572;2023-07-29T12:41:42;1.42;;;0.70;;
65613;SDS011;52283;49.292;10.572;2023-07-29T12:44:09;1.50;;;0.65;;
65613;SDS011;52283;49.292;10.572;2023-07-29T12:46:37;0.60;;;0.60;;
65613;SDS011;52283;49.292;10.572;2023-07-29T12:49:03;1.95;;;0.68;;
65613;SDS011;52283;49.292;10.572;2023-07-29T12:51:30;1.88;;;0.70;;
65613;SDS011;52283;49.292;10.572;2023-07-29T12:53:56;1.45;;;0.90;;
65613;SDS011;52283;49.292;10.572;2023-07-29T12:56:23;0.85;;;0.70;;
65613;SDS011;52283;49.292;10.572;2023-07-29T12:58:49;0.90;;;0.65;;
65613;SDS011;52283;49.292;10.572;2023-07-29T13:01:16;0.70;;;0.70;;
65613;SDS011;52283;49.292;10.572;2023-07-29T13:03:44;1.23;;;0.63;;
65613;SDS011;52283;49.292;10.572;2023-07-29T13:06:11;0.70;;;0.70;;
65613;SDS011;52283;49.292;10.572;2023-07-29T13:08:37;0.50;;;0.40;;
65613;SDS011;52283;49.292;10.572;2023-07-29T13:11:04;1.08;;;0.52;;
65613;SDS011;52283;49.292;10.572;2023-07-29T13:13:31;0.90;;;0.52;;
65613;SDS011;52283;49.292;10.572;2023-07-29T13:15:58;1.75;;;0.63;;
65613;SDS011;52283;49.292;10.572;2023-07-29T13:18:25;1.50;;;0.88;;
65613;SDS011;52283;49.292;10.572;2023-07-29T13:20:53;0.50;;;0.50;;
65613;SDS011;52283;49.292;10.572;2023-07-29T13:23:20;2.25;;;0.75;;
65613;SDS011;52283;49.292;10.572;2023-07-29T13:25:47;0.47;;;0.47;;
65613;SDS011;52283;49.292;10.572;2023-07-29T13:28:13;2.95;;;0.70;;
65613;SDS011;52283;49.292;10.572;2023-07-29T13:30:40;1.95;;;0.40;;
65613;SDS011;52283;49.292;10.572;2023-07-29T13:33:07;0.40;;;0.40;;
65613;SDS011;52283;49.292;10.572;2023-07-29T13:35:33;0.45;;;0.40;;
65613;SDS011;52283;49.292;10.572;2023-07-29T13:38:01;0.40;;;0.40;;
65613;SDS011;52283;49.292;10.572;2023-07-29T13:40:28;0.30;;;0.20;;
65613;SDS011;52283;49.292;10.572;2023-07-29T13:42:57;0.70;;;0.50;;
65613;SDS011;52283;49.292;10.572;2023-07-29T13:45:25;0.47;;;0.47;;
65613;SDS011;52283;49.292;10.572;2023-07-29T13:47:52;1.75;;;0.40;;
65613;SDS011;52283;49.292;10.572;2023-07-29T13:50:18;0.55;;;0.50;;
65613;SDS011;52283;49.292;10.572;2023-07-29T13:52:45;2.28;;;0.50;;
65613;SDS011;52283;49.292;10.572;2023-07-29T13:55:13;0.60;;;0.60;;
65613;SDS011;52283;49.292;10.572;2023-07-29T13:57:39;0.80;;;0.63;;
65613;SDS011;52283;49.292;10.572;2023-07-29T14:00:06;0.60;;;0.60;;
65613;SDS011;52283;49.292;10.572;2023-07-29T14:02:33;0.73;;;0.63;;
65613;SDS011;52283;49.292;10.572;2023-07-29T14:05:00;1.63;;;0.75;;
65613;SDS011;52283;49.292;10.572;2023-07-29T14:07:26;0.60;;;0.60;;
65613;SDS011;52283;49.292;10.572;2023-07-29T14:09:53;1.35;;;0.55;;
65613;SDS011;52283;49.292;10.572;2023-07-29T14:12:20;0.45;;;0.45;;
65613;SDS011;52283;49.292;10.572;2023-07-29T14:14:47;1.75;;;0.60;;
65613;SDS011;52283;49.292;10.572;2023-07-29T14:17:13;0.50;;;0.50;;
65613;SDS011;52283;49.292;10.572;2023-07-29T14:19:40;0.40;;;0.40;;
65613;SDS011;52283;49.292;10.572;2023-07-29T14:22:06;0.52;;;0.50;;
65613;SDS011;52283;49.292;10.572;2023-07-29T14:24:33;0.47;;;0.47;;
65613;SDS011;52283;49.292;10.572;2023-07-29T14:26:59;1.15;;;0.50;;
65613;SDS011;52283;49.292;10.572;2023-07-29T14:29:27;1.35;;;0.50;;
65613;SDS011;52283;49.292;10.572;2023-07-29T14:31:53;0.60;;;0.60;;
65613;SDS011;52283;49.292;10.572;2023-07-29T14:34:20;1.67;;;0.52;;
65613;SDS011;52283;49.292;10.572;2023-07-29T14:36:46;5.13;;;1.90;;
65613;SDS011;52283;49.292;10.572;2023-07-29T14:39:13;0.60;;;0.60;;